createdAt,value
2023-02-23T00:01:00.212Z,845.5
2023-02-23T00:02:43.944Z,842.2
2023-02-23T00:04:27.614Z,845.4
2023-02-23T00:06:11.323Z,846.1
2023-02-23T00:07:55.121Z,846
2023-02-23T00:09:38.715Z,843.8
2023-02-23T00:11:22.435Z,843.8
2023-02-23T00:13:06.138Z,841
2023-02-23T00:14:49.858Z,921.6
2023-02-23T00:16:33.534Z,1014.9
2023-02-23T00:18:17.237Z,1016.9
2023-02-23T00:20:00.944Z,954.5
2023-02-23T00:21:44.702Z,937
2023-02-23T00:23:28.369Z,928.6
2023-02-23T00:25:12.134Z,927.6
2023-02-23T00:26:55.739Z,930.6
2023-02-23T00:28:39.466Z,929.1
2023-02-23T00:30:23.166Z,927.8
2023-02-23T00:32:06.854Z,925.6
2023-02-23T00:33:50.582Z,928
2023-02-23T00:35:34.326Z,926.8
2023-02-23T00:37:18.040Z,922.1
2023-02-23T00:39:01.675Z,918.3
2023-02-23T00:40:45.370Z,918.6
2023-02-23T00:42:29.073Z,919.8
2023-02-23T00:44:12.837Z,917.2
2023-02-23T00:45:56.480Z,917.2
2023-02-23T00:47:40.185Z,917.4
2023-02-23T00:49:23.904Z,918.7
2023-02-23T00:51:07.613Z,917.1
2023-02-23T00:52:51.309Z,933.5
2023-02-23T00:56:17.762Z,985.8
2023-02-23T00:58:01.466Z,984.3
2023-02-23T00:59:45.164Z,971.7
2023-02-23T01:01:28.872Z,959.2
2023-02-23T01:03:12.582Z,952.3
2023-02-23T01:04:56.269Z,947.1
2023-02-23T01:06:39.969Z,953.8
2023-02-23T01:08:23.679Z,955.6
2023-02-23T01:10:07.384Z,951.1
2023-02-23T01:11:51.090Z,948.9
2023-02-23T01:13:34.780Z,946.2
2023-02-23T01:15:18.495Z,943.8
2023-02-23T01:17:02.189Z,947.7
2023-02-23T01:18:45.892Z,951
2023-02-23T01:20:29.590Z,1008.2
2023-02-23T01:22:13.303Z,1013.4
2023-02-23T01:23:57.020Z,1003.9
2023-02-23T01:25:40.713Z,994.9
2023-02-23T01:27:24.517Z,986
2023-02-23T01:29:08.112Z,975.4
2023-02-23T01:30:51.813Z,967.7
2023-02-23T01:32:35.516Z,965
2023-02-23T01:34:19.225Z,965.6
2023-02-23T01:36:02.946Z,966.2
2023-02-23T01:37:46.631Z,968.2
2023-02-23T01:39:30.332Z,970.2
2023-02-23T01:41:14.019Z,966.5
2023-02-23T01:42:57.731Z,961.1
2023-02-23T01:44:41.449Z,960.8
2023-02-23T01:46:25.129Z,962.1
2023-02-23T01:48:08.838Z,967.9
2023-02-23T01:49:52.565Z,970.5
2023-02-23T01:51:36.232Z,983.8
2023-02-23T01:53:19.999Z,992.7
2023-02-23T01:55:03.660Z,992.3
2023-02-23T01:56:47.349Z,989.3
2023-02-23T01:58:31.052Z,984.3
2023-02-23T02:00:14.743Z,975.3
2023-02-23T02:01:58.456Z,973
2023-02-23T02:03:42.157Z,975.3
2023-02-23T02:05:25.856Z,975.7
2023-02-23T02:07:09.554Z,976.2
2023-02-23T02:08:53.264Z,973.4
2023-02-23T02:10:36.966Z,975.2
2023-02-23T02:12:20.669Z,980.9
2023-02-23T02:14:04.375Z,992.1
2023-02-23T02:15:48.069Z,1000.9
2023-02-23T02:17:31.793Z,999.4
2023-02-23T02:19:15.490Z,987.6
2023-02-23T02:20:59.190Z,980.4
2023-02-23T02:22:42.880Z,981.6
2023-02-23T02:24:26.672Z,986.2
2023-02-23T02:26:10.293Z,983.6
2023-02-23T02:27:53.996Z,983.5
2023-02-23T02:29:37.701Z,985.5
2023-02-23T02:31:21.398Z,987.5
2023-02-23T02:33:05.106Z,989.6
2023-02-23T02:34:48.888Z,992.2
2023-02-23T02:36:32.506Z,988
2023-02-23T02:38:16.212Z,988.6
2023-02-23T02:40:00.032Z,986.2
2023-02-23T02:41:43.606Z,982.4
2023-02-23T02:43:27.372Z,982.6
2023-02-23T02:45:11.067Z,994.5
2023-02-23T02:46:54.719Z,1002.3
2023-02-23T02:48:38.434Z,1000
2023-02-23T02:50:22.122Z,1003.8
2023-02-23T02:52:05.819Z,1006.6
2023-02-23T02:53:49.533Z,1001.7
2023-02-23T02:55:33.241Z,996.3
2023-02-23T02:57:16.942Z,992.9
2023-02-23T02:59:00.646Z,989.6
2023-02-23T03:00:44.418Z,986.7
2023-02-23T03:02:28.053Z,984.4
2023-02-23T03:04:11.748Z,984
2023-02-23T03:05:55.453Z,980.4
2023-02-23T03:07:39.156Z,981.3
2023-02-23T03:09:22.860Z,977.5
2023-02-23T03:11:06.566Z,979.3
2023-02-23T03:12:50.265Z,982.2
2023-02-23T03:14:33.964Z,982.6
2023-02-23T03:16:17.664Z,982.3
2023-02-23T03:18:01.365Z,980
2023-02-23T03:19:45.072Z,980.3
2023-02-23T03:21:28.799Z,983.9
2023-02-23T03:23:12.468Z,983.6
2023-02-23T03:24:56.191Z,982.1
2023-02-23T03:26:39.878Z,982.4
2023-02-23T03:28:23.595Z,981.9
2023-02-23T03:30:07.282Z,983.3
2023-02-23T03:31:50.979Z,987.7
2023-02-23T03:33:34.692Z,987.8
2023-02-23T03:35:18.396Z,987.2
2023-02-23T03:37:02.097Z,986.5
2023-02-23T03:38:45.808Z,986.2
2023-02-23T03:40:29.504Z,984.1
2023-02-23T03:42:13.202Z,984.6
2023-02-23T03:43:56.960Z,985
2023-02-23T03:45:40.596Z,985
2023-02-23T03:47:24.417Z,983.2
2023-02-23T03:49:08.016Z,982
2023-02-23T03:50:51.708Z,980.4
2023-02-23T03:52:35.419Z,982.5
2023-02-23T03:54:19.115Z,982.5
2023-02-23T03:56:02.825Z,983.5
2023-02-23T03:57:46.526Z,983.3
2023-02-23T03:59:30.218Z,983.9
2023-02-23T04:01:13.918Z,982.2
2023-02-23T04:02:57.640Z,980.1
2023-02-23T04:04:41.337Z,977.7
2023-02-23T04:06:25.045Z,978.4
2023-02-23T04:08:08.741Z,980.1
2023-02-23T04:09:52.579Z,979.9
2023-02-23T04:11:36.153Z,998.6
2023-02-23T04:13:19.886Z,1000.3
2023-02-23T04:16:47.271Z,992.3
2023-02-23T04:18:30.969Z,990.9
2023-02-23T04:20:14.675Z,992.2
2023-02-23T04:21:58.368Z,994.3
2023-02-23T04:23:42.122Z,992.4
2023-02-23T04:25:25.809Z,991.3
2023-02-23T04:27:09.475Z,993.4
2023-02-23T04:28:53.176Z,996.1
2023-02-23T04:30:36.888Z,995.9
2023-02-23T04:32:20.586Z,996.1
2023-02-23T04:34:04.287Z,996
2023-02-23T04:35:47.990Z,995
2023-02-23T04:37:31.687Z,991
2023-02-23T04:39:15.397Z,993.2
2023-02-23T04:40:59.265Z,994.9
2023-02-23T04:42:42.800Z,995.6
2023-02-23T04:44:26.499Z,994.3
2023-02-23T04:46:10.202Z,991.2
2023-02-23T04:47:53.916Z,990.4
2023-02-23T04:49:37.620Z,991.3
2023-02-23T04:51:21.386Z,989.6
2023-02-23T04:53:05.013Z,992.7
2023-02-23T04:54:48.725Z,996.6
2023-02-23T04:56:32.422Z,998.9
2023-02-23T04:58:16.134Z,999.6
2023-02-23T04:59:59.943Z,1003.1
2023-02-23T05:01:43.534Z,1003.9
2023-02-23T05:03:27.303Z,1001.7
2023-02-23T05:05:10.939Z,1002.2
2023-02-23T05:06:54.639Z,1002.1
2023-02-23T05:08:38.339Z,1000.1
2023-02-23T05:10:22.107Z,997.7
2023-02-23T05:12:05.745Z,995.8
2023-02-23T05:13:49.445Z,993.7
2023-02-23T05:15:33.153Z,990.5
2023-02-23T05:17:16.848Z,991.9
2023-02-23T05:19:00.561Z,989.9
2023-02-23T05:20:44.245Z,989.7
2023-02-23T05:22:27.973Z,998.8
2023-02-23T05:24:11.693Z,1004.7
2023-02-23T05:25:55.379Z,1004.8
2023-02-23T05:27:39.090Z,1001.9
2023-02-23T05:29:22.764Z,1001.4
2023-02-23T05:31:06.473Z,1003.1
2023-02-23T05:32:50.177Z,1001.6
2023-02-23T05:34:33.876Z,995.8
2023-02-23T05:36:17.586Z,994.2
2023-02-23T05:38:01.284Z,991.6
2023-02-23T05:39:44.971Z,990.3
2023-02-23T05:41:28.711Z,989.5
2023-02-23T05:43:12.395Z,989.4
2023-02-23T05:44:56.086Z,994.2
2023-02-23T05:46:39.802Z,994.8
2023-02-23T05:48:23.484Z,996.2
2023-02-23T05:50:07.190Z,998
2023-02-23T05:51:50.896Z,995.1
2023-02-23T05:53:34.598Z,993.7
2023-02-23T05:55:18.424Z,996.1
2023-02-23T05:57:02.005Z,997
2023-02-23T05:58:45.711Z,997.5
2023-02-23T06:00:29.461Z,998.6
2023-02-23T06:02:13.109Z,997.2
2023-02-23T06:03:56.858Z,1000.8
2023-02-23T06:05:40.535Z,1001.9
2023-02-23T06:07:24.231Z,1002.7
2023-02-23T06:09:07.941Z,999.8
2023-02-23T06:10:51.629Z,993.8
2023-02-23T06:12:35.333Z,987.7
2023-02-23T06:14:19.062Z,986
2023-02-23T06:16:02.734Z,988.6
2023-02-23T06:17:46.437Z,990.5
2023-02-23T06:19:30.280Z,1001.4
2023-02-23T06:21:13.881Z,1011.2
2023-02-23T06:22:57.555Z,1024.8
2023-02-23T06:24:41.250Z,1041.6
2023-02-23T06:26:25.023Z,1046
2023-02-23T06:28:08.670Z,1049
2023-02-23T06:29:52.353Z,1062.8
2023-02-23T06:31:36.072Z,1069.3
2023-02-23T06:33:19.774Z,1083.3
2023-02-23T06:35:03.464Z,1094.2
2023-02-23T06:36:47.167Z,1098.6
2023-02-23T06:38:30.869Z,1103.2
2023-02-23T06:40:14.570Z,1106.5
2023-02-23T06:41:58.345Z,1109.1
2023-02-23T06:43:41.965Z,1115.9
2023-02-23T06:45:25.684Z,1117.4
2023-02-23T06:47:09.373Z,1127.6
2023-02-23T06:48:53.073Z,1155.4
2023-02-23T06:50:36.785Z,1182.7
2023-02-23T06:52:20.482Z,1194
2023-02-23T06:54:04.196Z,1197.1
2023-02-23T06:55:47.939Z,1199.9
2023-02-23T06:57:31.600Z,1209.3
2023-02-23T06:59:15.305Z,1218.7
2023-02-23T07:00:59.001Z,1221.5
2023-02-23T07:02:42.714Z,1228.5
2023-02-23T07:04:26.408Z,1241.1
2023-02-23T07:06:10.124Z,1235.6
2023-02-23T07:07:53.817Z,1227.1
2023-02-23T07:09:37.528Z,1223
2023-02-23T07:11:21.264Z,1223
2023-02-23T07:13:05.089Z,1223.5
2023-02-23T07:14:48.639Z,1226.6
2023-02-23T07:16:32.331Z,1228.7
2023-02-23T07:18:16.025Z,1232
2023-02-23T07:19:59.715Z,1235.4
2023-02-23T07:21:43.450Z,1239.1
2023-02-23T07:23:27.280Z,1243.2
2023-02-23T07:25:10.821Z,1243.7
2023-02-23T07:26:54.521Z,1247
2023-02-23T07:28:38.236Z,1247.2
2023-02-23T07:30:21.958Z,1254.3
2023-02-23T07:32:05.643Z,1249.1
2023-02-23T07:33:49.335Z,1246.9
2023-02-23T07:35:33.040Z,1245.4
2023-02-23T07:37:16.753Z,1241.6
2023-02-23T07:39:00.447Z,1239.6
2023-02-23T07:40:44.152Z,1238.2
2023-02-23T07:42:27.875Z,1239.2
2023-02-23T07:44:11.561Z,1236.5
2023-02-23T07:45:55.335Z,1232.2
2023-02-23T07:47:38.973Z,1233.9
2023-02-23T07:49:22.757Z,1234.1
2023-02-23T07:51:06.380Z,1232.2
2023-02-23T07:52:50.132Z,1225.5
2023-02-23T07:54:33.825Z,1221.3
2023-02-23T07:56:17.494Z,1227.5
2023-02-23T07:58:01.186Z,1219.9
2023-02-23T07:59:45.402Z,1217.6
2023-02-23T08:01:28.591Z,1217.2
2023-02-23T08:03:12.312Z,1209.7
2023-02-23T08:04:55.996Z,1210.4
2023-02-23T08:06:39.721Z,1208
2023-02-23T08:08:23.398Z,1209.5
2023-02-23T08:10:07.104Z,1203.8
2023-02-23T08:11:50.809Z,1204.4
2023-02-23T08:13:34.655Z,1207.5
2023-02-23T08:15:18.225Z,1206.7
2023-02-23T08:17:02.107Z,1205.8
2023-02-23T08:18:45.619Z,1206.2
2023-02-23T08:20:29.323Z,1207.1
2023-02-23T08:22:13.028Z,1207
2023-02-23T08:23:56.744Z,1204.5
2023-02-23T08:25:40.491Z,1200.2
2023-02-23T08:27:24.129Z,1198.3
2023-02-23T08:29:07.831Z,1200.3
2023-02-23T08:30:51.528Z,1202.4
2023-02-23T08:32:35.262Z,1207.4
2023-02-23T08:34:18.956Z,1208.7
2023-02-23T08:36:02.644Z,1215.7
2023-02-23T08:37:46.413Z,1214.6
2023-02-23T08:39:30.073Z,1210.4
2023-02-23T08:41:13.749Z,1212.6
2023-02-23T08:42:57.546Z,1214.8
2023-02-23T08:44:41.152Z,1216.4
2023-02-23T08:46:24.852Z,1215.8
2023-02-23T08:48:08.554Z,1221.8
2023-02-23T08:49:52.254Z,1220.6
2023-02-23T08:51:35.972Z,1220
2023-02-23T08:53:19.720Z,1225
2023-02-23T08:55:03.362Z,1221.8
2023-02-23T08:56:47.216Z,1219
2023-02-23T09:00:14.513Z,1211.3
2023-02-23T09:01:58.162Z,1209.7
2023-02-23T09:03:41.866Z,1210.8
2023-02-23T09:05:25.697Z,1209.3
2023-02-23T09:07:09.340Z,1207.6
2023-02-23T09:08:53.003Z,1206.8
2023-02-23T09:10:36.707Z,1205.1
2023-02-23T09:12:20.376Z,1203
2023-02-23T09:14:04.184Z,1202.6
2023-02-23T09:15:47.803Z,1202.9
2023-02-23T09:17:31.488Z,1203
2023-02-23T09:19:15.217Z,1200
2023-02-23T09:20:58.903Z,1196.2
2023-02-23T09:22:42.636Z,1196.3
2023-02-23T09:24:26.385Z,1197.5
2023-02-23T09:26:10.017Z,1195.5
2023-02-23T09:27:53.709Z,1195.6
2023-02-23T09:29:37.431Z,1196.3
2023-02-23T09:31:21.111Z,1193.9
2023-02-23T09:33:04.819Z,1190.8
2023-02-23T09:34:48.520Z,1191.3
2023-02-23T09:36:32.238Z,1190.7
2023-02-23T09:38:15.930Z,1188
2023-02-23T09:39:59.633Z,1185.2
2023-02-23T09:41:43.342Z,1185.3
2023-02-23T09:43:27.082Z,1185.8
2023-02-23T09:45:10.736Z,1186.3
2023-02-23T09:46:54.439Z,1185.6
2023-02-23T09:48:38.133Z,1182.7
2023-02-23T09:50:21.833Z,1181.4
2023-02-23T09:52:05.545Z,1179.3
2023-02-23T09:53:49.247Z,1174.7
2023-02-23T09:55:32.945Z,1175.3
2023-02-23T09:57:16.711Z,1178.5
2023-02-23T09:59:00.366Z,1176
2023-02-23T10:00:44.053Z,1175.9
2023-02-23T10:02:27.810Z,1172.6
2023-02-23T10:04:11.476Z,1172.1
2023-02-23T10:07:38.868Z,1169.1
2023-02-23T10:09:22.571Z,1168.9
2023-02-23T10:11:06.260Z,1169.4
2023-02-23T10:12:49.971Z,1167.1
2023-02-23T10:14:33.701Z,1166
2023-02-23T10:16:17.383Z,1164.3
2023-02-23T10:18:01.077Z,1180.6
2023-02-23T10:19:44.785Z,1246.1
2023-02-23T10:21:28.578Z,1224.8
2023-02-23T10:23:12.362Z,1197.7
2023-02-23T10:24:55.941Z,1186.7
2023-02-23T10:26:39.748Z,1180.9
2023-02-23T10:28:23.306Z,1175.1
2023-02-23T10:30:06.992Z,1168.6
2023-02-23T10:31:50.710Z,1165.2
2023-02-23T10:33:34.549Z,1172.9
2023-02-23T10:35:18.142Z,1175.8
2023-02-23T10:37:01.885Z,1173
2023-02-23T10:38:45.563Z,1172.8
2023-02-23T10:40:29.340Z,1175.4
2023-02-23T10:42:12.998Z,1174.7
2023-02-23T10:43:56.635Z,1174
2023-02-23T10:45:40.366Z,1172.6
2023-02-23T10:47:24.012Z,1171
2023-02-23T10:49:07.761Z,1165.8
2023-02-23T10:50:51.475Z,1162.6
2023-02-23T10:52:35.163Z,1159.3
2023-02-23T10:54:18.983Z,1160.7
2023-02-23T10:56:02.524Z,1160.3
2023-02-23T10:57:46.229Z,1156.4
2023-02-23T10:59:29.935Z,1151.7
2023-02-23T11:01:13.628Z,1152.3
2023-02-23T11:02:57.347Z,1161.1
2023-02-23T11:04:41.220Z,1174.7
2023-02-23T11:06:24.893Z,1342.6
2023-02-23T11:08:08.582Z,1529.3
2023-02-23T11:09:52.288Z,1530.5
2023-02-23T11:11:35.986Z,1528.9
2023-02-23T11:13:19.612Z,1513
2023-02-23T11:15:03.331Z,1437
2023-02-23T11:16:47.093Z,1363.4
2023-02-23T11:18:30.844Z,1350
2023-02-23T11:20:14.463Z,1343.7
2023-02-23T11:21:58.166Z,1329.4
2023-02-23T11:23:41.775Z,1323.1
2023-02-23T11:25:25.477Z,1322
2023-02-23T11:27:09.251Z,1326.2
2023-02-23T11:28:53.012Z,1320.4
2023-02-23T11:30:36.585Z,1314.6
2023-02-23T11:32:20.307Z,1316.1
2023-02-23T11:34:03.996Z,1310.8
2023-02-23T11:35:47.698Z,1307.5
2023-02-23T11:37:31.401Z,1305.8
2023-02-23T11:39:15.115Z,1301.2
2023-02-23T11:40:58.801Z,1296.5
2023-02-23T11:42:42.587Z,1290.7
2023-02-23T11:44:26.224Z,1276.7
2023-02-23T11:46:10.006Z,1274.7
2023-02-23T11:47:53.620Z,1269.8
2023-02-23T11:49:37.352Z,1262
2023-02-23T11:51:21.014Z,1254.2
2023-02-23T11:53:04.739Z,1252.9
2023-02-23T11:54:48.411Z,1261
2023-02-23T11:56:32.127Z,1284.1
2023-02-23T11:58:15.832Z,1288.6
2023-02-23T11:59:59.531Z,1275.8
2023-02-23T12:01:43.244Z,1266.3
2023-02-23T12:03:26.938Z,1251.2
2023-02-23T12:05:10.663Z,1243
2023-02-23T12:06:54.339Z,1236.6
2023-02-23T12:08:38.121Z,1235.7
2023-02-23T12:10:21.806Z,1232.9
2023-02-23T12:12:05.461Z,1232.3
2023-02-23T12:13:49.147Z,1227.9
2023-02-23T12:15:32.927Z,1225.7
2023-02-23T12:17:16.557Z,1223.9
2023-02-23T12:19:00.451Z,1225.9
2023-02-23T12:20:43.994Z,1225.1
2023-02-23T12:22:27.673Z,1220.2
2023-02-23T12:24:11.371Z,1213.8
2023-02-23T12:25:55.075Z,1213.8
2023-02-23T12:27:38.765Z,1212.8
2023-02-23T12:29:22.469Z,1211.2
2023-02-23T12:31:06.171Z,1206.2
2023-02-23T12:32:49.910Z,1201.3
2023-02-23T12:34:33.576Z,1196.9
2023-02-23T12:36:17.275Z,1197.1
2023-02-23T12:38:00.974Z,1196.6
2023-02-23T12:39:44.779Z,1195.5
2023-02-23T12:41:28.379Z,1195.2
2023-02-23T12:43:12.099Z,1185.7
2023-02-23T12:44:55.814Z,1174.8
2023-02-23T12:46:39.518Z,1169.7
2023-02-23T12:48:23.201Z,1170.8
2023-02-23T12:50:06.900Z,1168.7
2023-02-23T12:51:50.609Z,1167
2023-02-23T12:53:34.319Z,1172.3
2023-02-23T12:55:18.015Z,1164.8
2023-02-23T12:57:01.787Z,1162.9
2023-02-23T12:58:45.414Z,1161.4
2023-02-23T13:00:29.116Z,1157.2
2023-02-23T13:02:12.817Z,1150.1
2023-02-23T13:03:56.521Z,1150.7
2023-02-23T13:05:40.226Z,1152.3
2023-02-23T13:07:23.939Z,1148.8
2023-02-23T13:09:07.645Z,1147
2023-02-23T13:10:51.350Z,1148.9
2023-02-23T13:12:35.131Z,1151
2023-02-23T13:14:18.743Z,1147.5
2023-02-23T13:16:02.489Z,1147.1
2023-02-23T13:17:46.150Z,1148.4
2023-02-23T13:19:29.915Z,1204
2023-02-23T13:21:13.560Z,1241.6
2023-02-23T13:22:57.298Z,1243.3
2023-02-23T13:24:40.970Z,1225.6
2023-02-23T13:26:24.668Z,1203.9
2023-02-23T13:28:08.383Z,1203.5
2023-02-23T13:29:52.189Z,1200.4
2023-02-23T13:31:35.764Z,1195.6
2023-02-23T13:33:19.491Z,1182.9
2023-02-23T13:35:03.172Z,1180.3
2023-02-23T13:36:46.878Z,1175.7
2023-02-23T13:38:30.573Z,1177.5
2023-02-23T13:40:14.266Z,1180
2023-02-23T13:41:57.974Z,1179.5
2023-02-23T13:43:41.765Z,1181.8
2023-02-23T13:45:25.374Z,1177
2023-02-23T13:47:09.116Z,1171.3
2023-02-23T13:48:52.787Z,1174
2023-02-23T13:50:36.544Z,1176
2023-02-23T13:52:20.187Z,1177
2023-02-23T13:54:03.922Z,1177
2023-02-23T13:55:47.661Z,1175.1
2023-02-23T13:57:31.289Z,1174.6
2023-02-23T13:59:15.019Z,1171.6
2023-02-23T14:00:58.718Z,1164.6
2023-02-23T14:02:42.600Z,1159.9
2023-02-23T14:04:26.138Z,1156
2023-02-23T14:06:09.831Z,1149.8
2023-02-23T14:07:53.617Z,1150.2
2023-02-23T14:09:37.210Z,1150.5
2023-02-23T14:11:20.918Z,1153
2023-02-23T14:13:04.628Z,1160.8
2023-02-23T14:14:48.369Z,1171.5
2023-02-23T14:16:32.035Z,1172.9
2023-02-23T14:18:15.863Z,1165.6
2023-02-23T14:19:59.454Z,1159.8
2023-02-23T14:21:43.258Z,1152.3
2023-02-23T14:23:26.843Z,1147.2
2023-02-23T14:25:10.574Z,1142
2023-02-23T14:26:54.245Z,1139.2
2023-02-23T14:28:37.955Z,1136.4
2023-02-23T14:32:05.559Z,1137.4
2023-02-23T14:33:49.189Z,1138.5
2023-02-23T14:35:32.788Z,1142.3
2023-02-23T14:37:16.496Z,1149.7
2023-02-23T14:39:00.175Z,1156.9
2023-02-23T14:40:43.925Z,1155.3
2023-02-23T14:42:27.698Z,1151.2
2023-02-23T14:44:11.335Z,1150.5
2023-02-23T14:45:54.995Z,1148.1
2023-02-23T14:47:38.685Z,1148.2
2023-02-23T14:49:22.407Z,1148.3
2023-02-23T14:51:06.131Z,1148.1
2023-02-23T14:52:49.789Z,1144.3
2023-02-23T14:54:33.490Z,1142.9
2023-02-23T14:56:17.176Z,1142.8
2023-02-23T14:58:00.991Z,1139.5
2023-02-23T14:59:44.586Z,1357
2023-02-23T15:01:28.298Z,1455.2
2023-02-23T15:03:12.007Z,1403.1
2023-02-23T15:04:55.701Z,1316.4
2023-02-23T15:06:39.417Z,1261.8
2023-02-23T15:08:23.284Z,1250.1
2023-02-23T15:10:06.803Z,1241.3
2023-02-23T15:11:50.513Z,1235
2023-02-23T15:13:34.286Z,1235.2
2023-02-23T15:15:18.001Z,1230
2023-02-23T15:17:01.747Z,1224.4
2023-02-23T15:18:45.333Z,1215.9
2023-02-23T15:20:29.219Z,1211.8
2023-02-23T15:22:12.924Z,1207.2
2023-02-23T15:23:56.597Z,1207.5
2023-02-23T15:25:40.157Z,1209.8
2023-02-23T15:27:24.014Z,1208.1
2023-02-23T15:29:07.697Z,1199.5
2023-02-23T15:30:51.254Z,1197.7
2023-02-23T15:32:34.939Z,1193.9
2023-02-23T15:34:18.659Z,1184
2023-02-23T15:37:46.209Z,1176.7
2023-02-23T15:39:29.870Z,1170.4
2023-02-23T15:41:13.463Z,1169.4
2023-02-23T15:42:57.273Z,1171.9
2023-02-23T15:44:41.025Z,1170.1
2023-02-23T15:46:24.830Z,1168
2023-02-23T15:48:08.460Z,1164.2
2023-02-23T15:49:52.174Z,1162.5
2023-02-23T15:51:35.782Z,1157.8
2023-02-23T15:53:19.533Z,1154.9
2023-02-23T15:55:03.266Z,1152
2023-02-23T15:56:47.007Z,1149.7
2023-02-23T15:58:30.631Z,1146.6
2023-02-23T16:00:14.314Z,1144.9
2023-02-23T16:01:58.115Z,1142.3
2023-02-23T16:03:41.739Z,1138.2
2023-02-23T16:05:25.438Z,1133.7
2023-02-23T16:07:09.187Z,1131.4
2023-02-23T16:08:52.807Z,1126.7
2023-02-23T16:10:36.408Z,1125.1
2023-02-23T16:12:20.262Z,1117.3
2023-02-23T16:14:03.951Z,1111.1
2023-02-23T16:15:47.688Z,1108.5
2023-02-23T16:17:31.395Z,1108.3
2023-02-23T16:19:15.091Z,1103.4
2023-02-23T16:20:58.793Z,1102.9
2023-02-23T16:22:42.609Z,1100.2
2023-02-23T16:24:26.139Z,1097.1
2023-02-23T16:26:09.926Z,1097.8
2023-02-23T16:27:53.615Z,1093.3
2023-02-23T16:29:37.132Z,1092.1
2023-02-23T16:31:20.832Z,1089.4
2023-02-23T16:33:04.713Z,1084.5
2023-02-23T16:34:48.450Z,1087.4
2023-02-23T16:36:32.129Z,1093.4
2023-02-23T16:38:15.797Z,1088.6
2023-02-23T16:39:59.375Z,1088.5
2023-02-23T16:41:43.194Z,1081.8
2023-02-23T16:43:26.943Z,1084.3
2023-02-23T16:45:10.473Z,1083.9
2023-02-23T16:46:54.155Z,1081.3
2023-02-23T16:48:38.033Z,1081.5
2023-02-23T16:50:21.760Z,1080.9
2023-02-23T16:52:05.423Z,1080.1
2023-02-23T16:53:49.186Z,1079.8
2023-02-23T16:55:32.888Z,1074.3
2023-02-23T16:57:16.503Z,1069.8
2023-02-23T16:59:00.172Z,1068.2
2023-02-23T17:00:43.963Z,1064.2
2023-02-23T17:02:27.656Z,1062.5
2023-02-23T17:04:11.364Z,1062.9
2023-02-23T17:05:54.880Z,1061.2
2023-02-23T17:07:38.713Z,1060.6
2023-02-23T17:09:22.452Z,1056.3
2023-02-23T17:11:06.137Z,1053.1
2023-02-23T17:12:49.874Z,1053.1
2023-02-23T17:14:33.563Z,1050.4
2023-02-23T17:16:17.266Z,1048.9
2023-02-23T17:18:00.810Z,1051.2
2023-02-23T17:19:44.586Z,1051.1
2023-02-23T17:21:28.273Z,1051.5
2023-02-23T17:23:11.904Z,1049.9
2023-02-23T17:24:55.797Z,1048.5
2023-02-23T17:26:39.480Z,1047.2
2023-02-23T17:28:23.236Z,1047
2023-02-23T17:30:06.873Z,1046.7
2023-02-23T17:31:50.562Z,1047.3
2023-02-23T17:33:34.273Z,1045.3
2023-02-23T17:35:17.931Z,1044.1
2023-02-23T17:37:01.705Z,1043.5
2023-02-23T17:38:45.389Z,1038.4
2023-02-23T17:40:29.153Z,1035.6
2023-02-23T17:42:12.813Z,1032.5
2023-02-23T17:43:56.493Z,1029.7
2023-02-23T17:45:40.210Z,1028.8
2023-02-23T17:47:23.988Z,1028.1
2023-02-23T17:49:07.458Z,1028.5
2023-02-23T17:50:51.296Z,1029.9
2023-02-23T17:52:35.038Z,1035
2023-02-23T17:54:18.734Z,1090
2023-02-23T17:56:02.263Z,1073.8
2023-02-23T17:57:46.143Z,1063.6
2023-02-23T17:59:29.843Z,1058.9
2023-02-23T18:01:13.512Z,1155.8
2023-02-23T18:02:57.242Z,1341.7
2023-02-23T18:04:41.035Z,1319.5
2023-02-23T18:06:24.641Z,1314.6
2023-02-23T18:08:08.352Z,1307.7
2023-02-23T18:09:52.011Z,1301.3
2023-02-23T18:11:35.577Z,1293.5
2023-02-23T18:13:19.470Z,1289.9
2023-02-23T18:15:03.173Z,1287
2023-02-23T18:16:46.868Z,1290.5
2023-02-23T18:18:30.584Z,1291.1
2023-02-23T18:20:14.282Z,1289.3
2023-02-23T18:21:57.998Z,1286.2
2023-02-23T18:23:41.685Z,1284.8
2023-02-23T18:25:25.375Z,1282.5
2023-02-23T18:27:08.904Z,1283.8
2023-02-23T18:28:52.814Z,1285.8
2023-02-23T18:30:36.485Z,1280.1
2023-02-23T18:32:20.190Z,1280.1
2023-02-23T18:34:03.880Z,1280.4
2023-02-23T18:35:47.615Z,1280.6
2023-02-23T18:37:31.309Z,1285.2
2023-02-23T18:39:14.963Z,1286.4
2023-02-23T18:40:58.534Z,1286.5
2023-02-23T18:42:42.408Z,1282
2023-02-23T18:44:25.937Z,1282.8
2023-02-23T18:46:09.640Z,1293
2023-02-23T18:47:53.516Z,1290.9
2023-02-23T18:49:37.249Z,1287.1
2023-02-23T18:51:20.936Z,1284.1
2023-02-23T18:53:04.613Z,1281.8
2023-02-23T18:54:48.381Z,1282.4
2023-02-23T18:56:32.073Z,1284.6
2023-02-23T18:58:15.705Z,1282.5
2023-02-23T18:59:59.390Z,1278.4
2023-02-23T19:01:43.107Z,1277.7
2023-02-23T19:03:26.828Z,1278.5
2023-02-23T19:05:10.470Z,1281.6
2023-02-23T19:06:54.250Z,1281.6
2023-02-23T19:08:37.904Z,1283.1
2023-02-23T19:10:21.474Z,1286.6
2023-02-23T19:12:05.322Z,1285
2023-02-23T19:13:49.046Z,1282.1
2023-02-23T19:15:32.747Z,1283.3
2023-02-23T19:17:16.487Z,1299.7
2023-02-23T19:19:00.163Z,1320
2023-02-23T19:20:43.837Z,1328.9
2023-02-23T19:22:27.379Z,1334.7
2023-02-23T19:24:11.268Z,1337.4
2023-02-23T19:25:54.968Z,1331.8
2023-02-23T19:27:38.671Z,1331.4
2023-02-23T19:29:22.365Z,1339.8
2023-02-23T19:31:06.059Z,1346.8
2023-02-23T19:32:49.777Z,1346.8
2023-02-23T19:34:33.417Z,1342
2023-02-23T19:36:17.177Z,1328.6
2023-02-23T19:38:00.886Z,1289.5
2023-02-23T19:39:44.578Z,1286.4
2023-02-23T19:41:28.272Z,1284.3
2023-02-23T19:43:11.824Z,1283.8
2023-02-23T19:44:55.687Z,1284.7
2023-02-23T19:46:39.397Z,1285.8
2023-02-23T19:48:23.095Z,1283.4
2023-02-23T19:50:06.842Z,1281.3
2023-02-23T19:51:50.521Z,1277.1
2023-02-23T19:53:34.198Z,1276.2
2023-02-23T19:55:17.918Z,1271.9
2023-02-23T19:57:01.533Z,1269.4
2023-02-23T19:58:45.352Z,1270
2023-02-23T20:00:28.950Z,1269
2023-02-23T20:02:12.738Z,1267.5
2023-02-23T20:03:56.439Z,1260.9
2023-02-23T20:05:40.121Z,1258.6
2023-02-23T20:07:23.870Z,1252.2
2023-02-23T20:09:07.585Z,1249.7
2023-02-23T20:10:51.233Z,1248.4
2023-02-23T20:12:34.762Z,1243.8
2023-02-23T20:14:18.652Z,1240.1
2023-02-23T20:16:02.384Z,1239.9
2023-02-23T20:17:46.074Z,1238.7
2023-02-23T20:19:29.719Z,1241.2
2023-02-23T20:21:13.436Z,1246.8
2023-02-23T20:22:57.161Z,1252
2023-02-23T20:24:40.779Z,1250.4
2023-02-23T20:26:24.566Z,1239.4
2023-02-23T20:28:08.263Z,1231.2
2023-02-23T20:29:51.837Z,1312.2
2023-02-23T20:31:35.715Z,1333.7
2023-02-23T20:33:19.393Z,1303.2
2023-02-23T20:35:03.089Z,1266
2023-02-23T20:36:46.777Z,1264.1
2023-02-23T20:38:30.408Z,1263.3
2023-02-23T20:40:13.989Z,1261
2023-02-23T20:41:57.868Z,1258
2023-02-23T20:43:41.477Z,1253.7
2023-02-23T20:45:25.281Z,1254.4
2023-02-23T20:47:08.876Z,1263.3
2023-02-23T20:48:52.687Z,1266.9
2023-02-23T20:50:36.381Z,1266.2
2023-02-23T20:52:20.087Z,1263
2023-02-23T20:54:03.829Z,1263
2023-02-23T20:55:47.384Z,1258.1
2023-02-23T20:57:31.159Z,1252.1
2023-02-23T20:59:14.897Z,1248
2023-02-23T21:00:58.565Z,1246.5
2023-02-23T21:02:42.340Z,1237.6
2023-02-23T21:04:25.982Z,1230
2023-02-23T21:06:09.536Z,1229.5
2023-02-23T21:07:53.408Z,1229.4
2023-02-23T21:09:37.123Z,1234.5
2023-02-23T21:11:20.663Z,1236.8
2023-02-23T21:13:04.352Z,1234
2023-02-23T21:14:48.217Z,1236.4
2023-02-23T21:16:31.807Z,1233.7
2023-02-23T21:18:15.621Z,1232.3
2023-02-23T21:19:59.355Z,1232.1
2023-02-23T21:21:43.028Z,1232.1
2023-02-23T21:23:26.766Z,1235.5
2023-02-23T21:25:10.434Z,1240
2023-02-23T21:26:54.179Z,1241
2023-02-23T21:28:37.677Z,1237.5
2023-02-23T21:30:21.574Z,1240.3
2023-02-23T21:32:05.262Z,1245.9
2023-02-23T21:33:48.928Z,1242.3
2023-02-23T21:35:32.599Z,1241.8
2023-02-23T21:37:16.385Z,1270.9
2023-02-23T21:39:00.070Z,1284.9
2023-02-23T21:40:43.820Z,1249.6
2023-02-23T21:42:27.462Z,1222.1
2023-02-23T21:44:11.181Z,1216
2023-02-23T21:45:54.857Z,1208.9
2023-02-23T21:47:38.574Z,1207.7
2023-02-23T21:49:22.114Z,1205.3
2023-02-23T21:51:05.978Z,1202.8
2023-02-23T21:52:49.664Z,1202.8
2023-02-23T21:54:33.216Z,1194.8
2023-02-23T21:56:17.094Z,1200.1
2023-02-23T21:58:00.750Z,1204.4
2023-02-23T21:59:44.488Z,1203.5
2023-02-23T22:01:28.256Z,1203.4
2023-02-23T22:03:11.727Z,1205.6
2023-02-23T22:04:55.525Z,1204.3